createdAt,value
2019-05-29T00:00:56.487Z,43.74
2019-05-29T00:03:28.309Z,43.67
2019-05-29T00:05:59.858Z,43.76
2019-05-29T00:08:31.409Z,43.87
2019-05-29T00:11:03.342Z,43.81
2019-05-29T00:13:35.358Z,43.65
2019-05-29T00:16:08.300Z,43.87
2019-05-29T00:18:40.062Z,43.87
2019-05-29T00:21:13.055Z,43.89
2019-05-29T00:23:44.845Z,43.71
2019-05-29T00:26:16.625Z,43.77
2019-05-29T00:28:48.358Z,43.76
2019-05-29T00:31:20.305Z,43.72
2019-05-29T00:33:51.859Z,43.90
2019-05-29T00:36:24.296Z,43.84
2019-05-29T00:38:55.834Z,43.75
2019-05-29T00:41:27.769Z,43.77
2019-05-29T00:43:58.448Z,43.85
2019-05-29T00:46:30.478Z,43.87
2019-05-29T00:49:02.303Z,44.02
2019-05-29T00:51:33.879Z,43.95
2019-05-29T00:54:05.718Z,43.82
2019-05-29T00:56:37.795Z,43.93
2019-05-29T00:59:09.409Z,43.99
2019-05-29T01:01:41.577Z,43.96
2019-05-29T01:04:13.617Z,43.92
2019-05-29T01:06:44.510Z,43.92
2019-05-29T01:09:16.503Z,43.92
2019-05-29T01:11:48.307Z,44.00
2019-05-29T01:14:20.062Z,44.00
2019-05-29T01:16:51.814Z,44.08
2019-05-29T01:19:26.741Z,44.10
2019-05-29T01:21:58.097Z,44.15
2019-05-29T01:24:29.781Z,44.18
2019-05-29T01:27:00.484Z,44.02
2019-05-29T01:29:32.305Z,44.17
2019-05-29T01:32:03.814Z,44.27
2019-05-29T01:34:35.709Z,44.16
2019-05-29T01:37:06.497Z,44.07
2019-05-29T01:39:38.306Z,44.15
2019-05-29T01:42:10.019Z,44.14
2019-05-29T01:44:41.716Z,44.26
2019-05-29T01:47:12.657Z,44.11
2019-05-29T01:49:43.460Z,44.24
2019-05-29T01:52:15.565Z,44.24
2019-05-29T01:54:46.452Z,44.24
2019-05-29T01:57:18.302Z,44.32
2019-05-29T01:59:50.286Z,44.24
2019-05-29T02:02:22.364Z,44.07
2019-05-29T02:04:54.005Z,43.97
2019-05-29T02:07:25.769Z,43.95
2019-05-29T02:09:56.455Z,44.05
2019-05-29T02:12:28.001Z,44.11
2019-05-29T02:14:59.747Z,44.16
2019-05-29T02:17:31.255Z,44.19
2019-05-29T02:20:02.811Z,44.20
2019-05-29T02:22:34.750Z,44.19
2019-05-29T02:25:05.931Z,44.24
2019-05-29T02:27:37.805Z,44.23
2019-05-29T02:30:09.976Z,44.22
2019-05-29T02:32:41.790Z,44.29
2019-05-29T02:35:13.362Z,44.32
2019-05-29T02:37:45.603Z,44.23
2019-05-29T02:40:18.868Z,44.27
2019-05-29T02:42:51.295Z,44.27
2019-05-29T02:45:26.134Z,44.31
2019-05-29T02:47:56.065Z,44.22
2019-05-29T02:50:29.308Z,44.16
2019-05-29T02:53:01.303Z,44.22
2019-05-29T02:55:32.983Z,44.18
2019-05-29T02:58:04.717Z,44.26
2019-05-29T03:01:07.464Z,44.25
2019-05-29T03:03:40.245Z,44.16
2019-05-29T03:06:12.058Z,44.30
2019-05-29T03:08:43.761Z,44.19
2019-05-29T03:11:14.467Z,44.16
2019-05-29T03:13:46.308Z,44.14
2019-05-29T03:16:18.044Z,44.12
2019-05-29T03:18:49.742Z,44.16
2019-05-29T03:21:20.449Z,44.16
2019-05-29T03:23:52.438Z,44.26
2019-05-29T03:26:26.857Z,44.19
2019-05-29T03:28:57.760Z,44.24
2019-05-29T03:31:36.819Z,44.24
2019-05-29T03:34:03.070Z,44.27
2019-05-29T03:36:41.955Z,44.25
2019-05-29T03:39:09.439Z,44.34
2019-05-29T03:41:41.055Z,44.51
2019-05-29T03:44:12.792Z,44.40
2019-05-29T03:46:45.999Z,44.45
2019-05-29T03:49:17.761Z,44.36
2019-05-29T03:51:48.451Z,44.36
2019-05-29T03:54:20.307Z,44.38
2019-05-29T03:56:52.308Z,44.20
2019-05-29T03:59:24.006Z,44.25
2019-05-29T04:01:55.777Z,44.25
2019-05-29T04:04:26.917Z,44.50
2019-05-29T04:06:58.892Z,44.20
2019-05-29T04:09:31.258Z,44.43
2019-05-29T04:12:03.372Z,44.26
2019-05-29T04:14:35.699Z,44.22
2019-05-29T04:17:07.768Z,44.40
2019-05-29T04:19:39.762Z,44.09
2019-05-29T04:22:11.695Z,44.34
2019-05-29T04:24:43.863Z,44.45
2019-05-29T04:27:15.768Z,44.36
2019-05-29T04:29:46.473Z,44.06
2019-05-29T04:32:18.301Z,44.26
2019-05-29T04:34:49.800Z,44.19
2019-05-29T04:37:21.738Z,44.43
2019-05-29T04:39:52.501Z,44.19
2019-05-29T04:42:24.295Z,44.11
2019-05-29T04:44:55.902Z,44.33
2019-05-29T04:47:28.907Z,44.38
2019-05-29T04:50:00.793Z,44.09
2019-05-29T04:52:33.810Z,44.72
2019-05-29T04:55:06.300Z,44.83
2019-05-29T04:57:39.262Z,44.73
2019-05-29T05:00:11.385Z,44.50
2019-05-29T05:02:43.298Z,44.71
2019-05-29T05:05:19.257Z,44.61
2019-05-29T05:07:49.306Z,44.70
2019-05-29T05:10:41.018Z,44.53
2019-05-29T05:13:13.057Z,44.50
2019-05-29T05:15:44.776Z,43.92
2019-05-29T05:18:15.480Z,44.17
2019-05-29T05:20:47.310Z,44.29
2019-05-29T05:23:18.837Z,44.26
2019-05-29T05:25:50.618Z,44.44
2019-05-29T05:28:22.749Z,44.19
2019-05-29T05:30:53.480Z,44.19
2019-05-29T05:33:25.343Z,44.15
2019-05-29T05:35:57.066Z,44.47
2019-05-29T05:38:30.502Z,44.07
2019-05-29T05:41:02.300Z,44.02
2019-05-29T05:43:34.889Z,44.02
2019-05-29T05:46:06.799Z,44.02
2019-05-29T05:48:39.218Z,44.23
2019-05-29T05:51:11.380Z,43.71
2019-05-29T05:53:43.049Z,44.10
2019-05-29T05:56:14.784Z,43.96
2019-05-29T05:58:46.775Z,44.44
2019-05-29T06:01:17.502Z,44.01
2019-05-29T06:03:49.313Z,44.13
2019-05-29T06:06:20.832Z,43.40
2019-05-29T06:08:52.782Z,43.96
2019-05-29T06:11:23.491Z,43.90
2019-05-29T06:13:55.306Z,42.94
2019-05-29T06:16:26.876Z,43.55
2019-05-29T06:18:58.385Z,43.49
2019-05-29T06:21:30.910Z,43.34
2019-05-29T06:24:02.867Z,43.28
2019-05-29T06:26:34.889Z,43.52
2019-05-29T06:29:06.746Z,43.25
2019-05-29T06:31:39.427Z,43.48
2019-05-29T06:34:11.364Z,43.49
2019-05-29T06:36:47.903Z,43.49
2019-05-29T06:39:17.752Z,43.50
2019-05-29T06:41:49.397Z,43.39
2019-05-29T06:44:21.038Z,43.18
2019-05-29T06:46:52.805Z,43.07
2019-05-29T06:49:24.496Z,43.64
2019-05-29T06:51:56.314Z,43.41
2019-05-29T06:54:27.868Z,43.36
2019-05-29T06:57:00.270Z,43.13
2019-05-29T06:59:31.847Z,43.23
2019-05-29T07:02:04.003Z,43.12
2019-05-29T07:04:36.240Z,43.27
2019-05-29T07:07:07.990Z,42.99
2019-05-29T07:09:41.304Z,42.91
2019-05-29T07:12:13.365Z,43.39
2019-05-29T07:14:45.070Z,43.36
2019-05-29T07:17:17.298Z,43.46
2019-05-29T07:20:02.896Z,43.13
2019-05-29T07:22:22.493Z,43.31
2019-05-29T07:24:54.258Z,43.20
2019-05-29T07:27:26.307Z,43.22
2019-05-29T07:29:57.850Z,42.68
2019-05-29T07:32:29.449Z,42.26
2019-05-29T07:35:03.878Z,42.99
2019-05-29T07:37:34.720Z,42.75
2019-05-29T07:40:05.930Z,42.55
2019-05-29T07:42:40.103Z,42.32
2019-05-29T07:45:11.308Z,41.92
2019-05-29T07:47:44.623Z,42.63
2019-05-29T07:50:17.481Z,42.67
2019-05-29T07:52:49.463Z,42.49
2019-05-29T07:55:23.618Z,42.97
2019-05-29T07:57:54.740Z,42.97
2019-05-29T08:00:35.141Z,42.76
2019-05-29T08:03:00.007Z,42.15
2019-05-29T08:05:31.756Z,41.87
2019-05-29T08:08:02.651Z,41.70
2019-05-29T08:10:33.462Z,41.36
2019-05-29T08:13:05.330Z,41.36
2019-05-29T08:15:52.956Z,41.83
2019-05-29T08:18:11.306Z,41.66
2019-05-29T08:20:43.897Z,41.37
2019-05-29T08:23:15.704Z,41.25
2019-05-29T08:25:47.777Z,41.76
2019-05-29T08:28:19.750Z,41.85
2019-05-29T08:30:55.819Z,41.68
2019-05-29T08:33:23.915Z,41.93
2019-05-29T08:36:00.207Z,41.84
2019-05-29T08:38:29.316Z,41.69
2019-05-29T08:41:00.902Z,41.45
2019-05-29T08:43:32.726Z,40.37
2019-05-29T08:46:03.616Z,41.86
2019-05-29T08:48:35.371Z,40.42
2019-05-29T08:51:07.302Z,40.42
2019-05-29T08:53:38.866Z,40.25
2019-05-29T08:56:10.617Z,40.99
2019-05-29T08:58:42.892Z,41.37
2019-05-29T09:01:14.738Z,41.37
2019-05-29T09:03:46.756Z,40.88
2019-05-29T09:06:18.399Z,41.65
2019-05-29T09:08:52.083Z,40.85
2019-05-29T09:11:23.747Z,40.52
2019-05-29T09:13:54.477Z,40.88
2019-05-29T09:16:26.306Z,40.59
2019-05-29T09:18:57.863Z,39.66
2019-05-29T09:21:29.743Z,40.55
2019-05-29T09:24:00.464Z,40.96
2019-05-29T09:26:32.308Z,40.90
2019-05-29T09:29:04.067Z,40.29
2019-05-29T09:31:36.071Z,41.20
2019-05-29T09:34:07.847Z,39.35
2019-05-29T09:36:39.435Z,39.27
2019-05-29T09:39:11.670Z,39.90
2019-05-29T09:41:43.368Z,38.97
2019-05-29T09:44:31.237Z,38.97
2019-05-29T09:46:48.774Z,39.92
2019-05-29T09:49:20.249Z,40.32
2019-05-29T09:51:52.639Z,38.88
2019-05-29T09:54:25.656Z,40.21
2019-05-29T09:56:58.404Z,39.78
2019-05-29T09:59:30.810Z,40.70
2019-05-29T10:02:07.285Z,40.74
2019-05-29T10:04:36.276Z,40.50
2019-05-29T10:07:08.010Z,40.95
2019-05-29T10:09:39.727Z,40.81
2019-05-29T10:12:11.435Z,40.63
2019-05-29T10:14:43.310Z,40.62
2019-05-29T10:17:15.451Z,41.20
2019-05-29T10:19:47.303Z,39.63
2019-05-29T10:22:18.939Z,41.39
2019-05-29T10:24:50.787Z,40.92
2019-05-29T10:27:22.341Z,40.61
2019-05-29T10:29:54.375Z,40.71
2019-05-29T10:32:26.298Z,40.92
2019-05-29T10:34:57.877Z,40.53
2019-05-29T10:37:29.759Z,40.49
2019-05-29T10:40:00.478Z,39.87
2019-05-29T10:42:32.759Z,41.34
2019-05-29T10:45:04.259Z,40.06
2019-05-29T10:47:35.809Z,41.23
2019-05-29T10:50:07.987Z,41.12
2019-05-29T10:52:39.733Z,41.07
2019-05-29T10:55:11.573Z,40.49
2019-05-29T10:57:44.622Z,40.94
2019-05-29T11:00:17.806Z,40.94
2019-05-29T11:02:50.087Z,41.15
2019-05-29T11:05:22.790Z,41.20
2019-05-29T11:07:54.348Z,40.94
2019-05-29T11:10:26.049Z,40.88
2019-05-29T11:12:57.738Z,40.28
2019-05-29T11:15:29.395Z,41.13
2019-05-29T11:18:01.297Z,40.14
2019-05-29T11:20:32.873Z,40.01
2019-05-29T11:23:04.442Z,39.08
2019-05-29T11:25:36.295Z,38.59
2019-05-29T11:28:07.822Z,40.92
2019-05-29T11:30:39.408Z,41.25
2019-05-29T11:33:11.306Z,41.21
2019-05-29T11:35:57.353Z,39.89
2019-05-29T11:38:16.816Z,41.15
2019-05-29T11:40:48.903Z,39.80
2019-05-29T11:43:20.811Z,40.43
2019-05-29T11:45:53.139Z,39.82
2019-05-29T11:48:25.295Z,39.63
2019-05-29T11:50:58.282Z,40.68
2019-05-29T11:53:29.852Z,40.02
2019-05-29T11:56:02.047Z,40.61
2019-05-29T11:58:33.793Z,40.96
2019-05-29T12:01:05.775Z,39.53
2019-05-29T12:03:36.662Z,40.40
2019-05-29T12:06:07.528Z,40.35
2019-05-29T12:08:39.298Z,40.81
2019-05-29T12:11:10.897Z,40.81
2019-05-29T12:13:42.712Z,40.94
2019-05-29T12:16:13.487Z,39.77
2019-05-29T12:18:45.301Z,40.53
2019-05-29T12:21:17.050Z,40.71
2019-05-29T12:23:48.728Z,39.63
2019-05-29T12:26:22.678Z,40.53
2019-05-29T12:28:53.956Z,39.32
2019-05-29T12:31:26.387Z,39.35
2019-05-29T12:34:00.216Z,40.26
2019-05-29T12:36:31.474Z,39.93
2019-05-29T12:39:04.215Z,39.52
2019-05-29T12:41:36.162Z,40.58
2019-05-29T12:44:08.297Z,40.73
2019-05-29T12:46:40.295Z,40.55
2019-05-29T12:49:12.299Z,39.36
2019-05-29T12:51:44.259Z,40.10
2019-05-29T12:54:16.267Z,39.94
2019-05-29T12:56:47.859Z,40.32
2019-05-29T12:59:19.797Z,39.53
2019-05-29T13:01:51.598Z,40.38
2019-05-29T13:04:23.339Z,40.46
2019-05-29T13:06:56.222Z,39.14
2019-05-29T13:09:27.839Z,40.57
2019-05-29T13:12:00.628Z,39.33
2019-05-29T13:14:31.444Z,39.36
2019-05-29T13:17:05.039Z,40.39
2019-05-29T13:19:36.839Z,40.26
2019-05-29T13:22:08.726Z,40.65
2019-05-29T13:24:39.452Z,40.74
2019-05-29T13:27:11.307Z,39.69
2019-05-29T13:29:44.306Z,39.36
2019-05-29T13:32:16.298Z,40.92
2019-05-29T13:34:48.299Z,40.29
2019-05-29T13:37:20.643Z,40.02
2019-05-29T13:39:52.417Z,41.01
2019-05-29T13:42:24.303Z,41.01
2019-05-29T13:44:59.030Z,40.37
2019-05-29T13:47:29.831Z,40.16
2019-05-29T13:50:07.458Z,40.76
2019-05-29T13:52:35.419Z,41.01
2019-05-29T13:55:08.840Z,39.88
2019-05-29T13:57:40.594Z,40.82
2019-05-29T14:00:31.742Z,40.97
2019-05-29T14:02:45.812Z,40.35
2019-05-29T14:05:17.782Z,40.18
2019-05-29T14:07:49.390Z,41.05
2019-05-29T14:10:21.581Z,40.64
2019-05-29T14:12:53.390Z,40.89
2019-05-29T14:15:25.432Z,40.89
2019-05-29T14:17:57.300Z,41.08
2019-05-29T14:20:28.860Z,40.78
2019-05-29T14:23:01.268Z,40.71
2019-05-29T14:25:33.006Z,40.23
2019-05-29T14:28:04.762Z,40.79
2019-05-29T14:30:36.753Z,40.55
2019-05-29T14:33:11.322Z,40.80
2019-05-29T14:35:41.742Z,40.21
2019-05-29T14:38:14.932Z,39.74
2019-05-29T14:40:45.807Z,40.35
2019-05-29T14:43:17.788Z,40.87
2019-05-29T14:45:48.491Z,40.22
2019-05-29T14:48:20.305Z,40.79
2019-05-29T14:50:52.303Z,40.94
2019-05-29T14:53:24.321Z,40.71
2019-05-29T14:55:56.305Z,39.54
2019-05-29T14:58:28.429Z,40.74
2019-05-29T15:01:00.309Z,40.97
2019-05-29T15:03:32.056Z,41.28
2019-05-29T15:06:03.792Z,40.87
2019-05-29T15:08:35.449Z,41.22
2019-05-29T15:11:07.938Z,41.59
2019-05-29T15:13:39.766Z,41.59
2019-05-29T15:16:10.887Z,41.52
2019-05-29T15:18:42.816Z,41.67
2019-05-29T15:21:15.391Z,40.75
2019-05-29T15:23:48.302Z,41.49
2019-05-29T15:26:20.289Z,41.49
2019-05-29T15:28:52.404Z,41.46
2019-05-29T15:31:24.087Z,41.67
2019-05-29T15:33:55.810Z,41.36
2019-05-29T15:36:27.574Z,41.32
2019-05-29T15:38:59.435Z,41.34
2019-05-29T15:41:31.067Z,41.34
2019-05-29T15:44:02.815Z,41.17
2019-05-29T15:46:34.709Z,41.27
2019-05-29T15:49:06.793Z,41.13
2019-05-29T15:51:39.301Z,40.66
2019-05-29T15:54:11.261Z,41.03
2019-05-29T15:56:43.077Z,41.50
2019-05-29T15:59:16.576Z,41.25
2019-05-29T16:01:48.308Z,41.36
2019-05-29T16:04:21.012Z,41.21
2019-05-29T16:06:55.141Z,41.24
2019-05-29T16:09:27.052Z,41.39
2019-05-29T16:11:59.306Z,40.84
2019-05-29T16:14:30.878Z,41.52
2019-05-29T16:17:02.406Z,41.08
2019-05-29T16:19:34.326Z,41.00
2019-05-29T16:22:06.298Z,41.26
2019-05-29T16:24:38.058Z,41.40
2019-05-29T16:27:10.607Z,41.12
2019-05-29T16:29:42.417Z,40.19
2019-05-29T16:32:15.988Z,41.08
2019-05-29T16:34:47.768Z,40.91
2019-05-29T16:37:19.356Z,41.09
2019-05-29T16:39:51.398Z,41.25
2019-05-29T16:42:23.075Z,40.35
2019-05-29T16:44:55.291Z,39.75
2019-05-29T16:47:27.307Z,40.83
2019-05-29T16:49:59.068Z,40.79
2019-05-29T16:52:30.748Z,40.52
2019-05-29T16:55:01.564Z,41.32
2019-05-29T16:57:32.516Z,41.01
2019-05-29T17:00:04.654Z,40.38
2019-05-29T17:02:36.479Z,41.37
2019-05-29T17:05:08.313Z,41.37
2019-05-29T17:07:40.067Z,41.16
2019-05-29T17:10:11.797Z,41.46
2019-05-29T17:12:43.466Z,41.39
2019-05-29T17:15:16.714Z,41.41
2019-05-29T17:17:48.751Z,41.34
2019-05-29T17:20:36.496Z,41.40
2019-05-29T17:23:08.734Z,41.36
2019-05-29T17:25:40.799Z,40.92
2019-05-29T17:28:11.492Z,41.07
2019-05-29T17:30:43.753Z,41.38
2019-05-29T17:33:15.077Z,41.38
2019-05-29T17:35:46.784Z,41.39
2019-05-29T17:38:18.931Z,41.40
2019-05-29T17:40:50.919Z,41.28
2019-05-29T17:43:25.398Z,41.46
2019-05-29T17:45:56.749Z,40.42
2019-05-29T17:48:27.445Z,41.17
2019-05-29T17:50:59.263Z,41.42
2019-05-29T17:53:31.303Z,41.37
2019-05-29T17:56:02.836Z,41.19
2019-05-29T17:58:34.747Z,40.80
2019-05-29T18:01:05.615Z,41.33
2019-05-29T18:03:37.796Z,40.91
2019-05-29T18:06:09.787Z,40.91
2019-05-29T18:08:40.871Z,40.84
2019-05-29T18:11:12.814Z,41.13
2019-05-29T18:13:44.622Z,39.30
2019-05-29T18:16:17.356Z,39.53
2019-05-29T18:18:49.058Z,39.53
2019-05-29T18:21:21.594Z,41.39
2019-05-29T18:23:53.671Z,39.86
2019-05-29T18:26:27.457Z,41.84
2019-05-29T18:28:59.314Z,41.87
2019-05-29T18:31:30.879Z,41.83
2019-05-29T18:34:02.631Z,41.38
2019-05-29T18:36:33.746Z,41.62
2019-05-29T18:39:04.298Z,42.00
2019-05-29T18:41:36.311Z,41.90
2019-05-29T18:44:08.058Z,41.08
2019-05-29T18:46:39.801Z,41.44
2019-05-29T18:49:14.579Z,41.22
2019-05-29T18:51:45.334Z,41.54
2019-05-29T18:54:16.879Z,41.08
2019-05-29T18:57:13.018Z,41.70
2019-05-29T18:59:21.574Z,42.11
2019-05-29T19:01:53.333Z,41.77
2019-05-29T19:04:25.552Z,41.77
2019-05-29T19:06:56.616Z,42.02
2019-05-29T19:09:28.372Z,42.02
2019-05-29T19:12:00.314Z,42.02
2019-05-29T19:14:32.555Z,41.72
2019-05-29T19:17:04.825Z,42.30
2019-05-29T19:19:36.642Z,42.30
2019-05-29T19:22:07.488Z,42.22
2019-05-29T19:24:39.406Z,42.10
2019-05-29T19:27:11.865Z,42.38
2019-05-29T19:29:45.487Z,42.33
2019-05-29T19:32:17.267Z,42.31
2019-05-29T19:34:48.825Z,42.32
2019-05-29T19:37:20.765Z,42.38
2019-05-29T19:39:51.492Z,42.48
2019-05-29T19:42:24.085Z,42.29
2019-05-29T19:44:55.765Z,42.30
2019-05-29T19:47:26.624Z,41.95
2019-05-29T19:49:58.762Z,42.45
2019-05-29T19:52:29.481Z,42.45
2019-05-29T19:55:01.312Z,42.40
2019-05-29T19:57:50.745Z,42.67
2019-05-29T20:00:07.723Z,42.54
2019-05-29T20:02:39.080Z,42.39
2019-05-29T20:05:10.782Z,42.67
2019-05-29T20:07:41.493Z,42.54
2019-05-29T20:10:13.313Z,42.64
2019-05-29T20:12:44.882Z,42.41
2019-05-29T20:15:17.066Z,42.35
2019-05-29T20:17:49.322Z,42.88
2019-05-29T20:20:21.394Z,42.71
2019-05-29T20:22:53.324Z,42.94
2019-05-29T20:25:24.946Z,42.50
2019-05-29T20:28:05.829Z,42.94
2019-05-29T20:30:30.744Z,43.08
2019-05-29T20:33:01.507Z,43.18
2019-05-29T20:35:33.320Z,43.18
2019-05-29T20:38:06.683Z,43.16
2019-05-29T20:40:39.439Z,43.24
2019-05-29T20:43:11.383Z,43.16
2019-05-29T20:48:13.354Z,43.21
2019-05-29T20:50:45.309Z,43.12
2019-05-29T20:53:16.825Z,43.27
2019-05-29T20:55:48.590Z,43.40
2019-05-29T20:58:24.557Z,43.53
2019-05-29T21:00:53.765Z,43.53
2019-05-29T21:03:24.452Z,43.33
2019-05-29T21:05:56.053Z,43.52
2019-05-29T21:08:27.813Z,43.53
2019-05-29T21:10:59.400Z,43.38
2019-05-29T21:13:31.275Z,43.59
2019-05-29T21:16:03.329Z,43.06
2019-05-29T21:18:35.830Z,43.38
2019-05-29T21:21:07.725Z,43.59
2019-05-29T21:23:38.517Z,43.45
2019-05-29T21:26:10.305Z,43.60
2019-05-29T21:28:48.112Z,43.67
2019-05-29T21:31:17.084Z,43.67
2019-05-29T21:33:49.462Z,43.74
2019-05-29T21:36:21.352Z,43.78
2019-05-29T21:38:53.666Z,43.78
2019-05-29T21:41:24.483Z,43.72
2019-05-29T21:43:56.272Z,43.90
2019-05-29T21:46:34.319Z,44.00
2019-05-29T21:49:05.860Z,43.64
2019-05-29T21:51:37.557Z,43.21
2019-05-29T21:54:09.279Z,43.94
2019-05-29T21:56:41.592Z,43.94
2019-05-29T21:59:13.389Z,43.81
2019-05-29T22:01:46.331Z,43.81
2019-05-29T22:04:18.316Z,43.83
2019-05-29T22:06:49.833Z,43.96
2019-05-29T22:09:21.682Z,43.84
2019-05-29T22:11:54.315Z,43.90
2019-05-29T22:14:26.057Z,43.90
2019-05-29T22:16:59.041Z,43.86
2019-05-29T22:19:31.432Z,43.90
2019-05-29T22:22:03.746Z,44.12
2019-05-29T22:24:35.754Z,43.99
2019-05-29T22:27:07.387Z,43.77
2019-05-29T22:29:39.053Z,44.11
2019-05-29T22:32:10.701Z,43.90
2019-05-29T22:34:41.485Z,43.57
2019-05-29T22:37:13.302Z,43.68
2019-05-29T22:39:46.711Z,44.17
2019-05-29T22:42:17.477Z,44.03
2019-05-29T22:44:49.310Z,44.23
2019-05-29T22:47:21.321Z,44.25
2019-05-29T22:49:53.923Z,43.95
2019-05-29T22:52:25.777Z,44.31
2019-05-29T22:54:58.010Z,44.28
2019-05-29T22:57:29.882Z,44.23
2019-05-29T23:00:02.520Z,44.17
2019-05-29T23:02:33.471Z,44.28
2019-05-29T23:05:05.813Z,44.32
2019-05-29T23:07:37.416Z,44.13
2019-05-29T23:10:09.792Z,44.20
2019-05-29T23:12:41.357Z,44.28
2019-05-29T23:15:13.063Z,44.24
2019-05-29T23:17:44.771Z,44.25
2019-05-29T23:20:17.069Z,43.81
2019-05-29T23:22:49.306Z,44.03
2019-05-29T23:25:20.811Z,44.31
2019-05-29T23:27:52.825Z,44.42
2019-05-29T23:30:24.740Z,43.68
2019-05-29T23:32:55.489Z,44.61
2019-05-29T23:35:27.779Z,44.44
2019-05-29T23:37:59.362Z,44.48
2019-05-29T23:40:31.067Z,44.49
2019-05-29T23:43:03.683Z,44.13
2019-05-29T23:45:35.255Z,44.40
2019-05-29T23:48:06.967Z,44.80
2019-05-29T23:50:38.772Z,44.61
2019-05-29T23:53:10.600Z,44.38
2019-05-29T23:55:42.819Z,44.07
2019-05-29T23:58:15.010Z,44.07
